Time;durP1;ratioP1;P1;durP2;ratioP2;P2;SDS_P1;SDS_P2;PMS_P1;PMS_P2;Temp;Humidity;BMP_temperature;BMP_pressure;BME280_temperature;BME280_humidity;BME280_pressure;Samples;Min_cycle;Max_cycle;Signal;HPM_P1;HPM_P2
2022/12/27 00:00:15;;;;;;;7.53;2.30;;;2.70;1.00;;;;;;5012191;28;20200;-79
2022/12/27 00:02:40;;;;;;;8.40;2.33;;;2.70;1.00;;;;;;5012097;28;20183;-81
2022/12/27 00:05:07;;;;;;;7.47;2.67;;;2.70;1.00;;;;;;5011034;28;20191;-78
2022/12/27 00:07:33;;;;;;;6.67;2.20;;;2.70;1.00;;;;;;5011409;28;20191;-81
2022/12/27 00:09:58;;;;;;;7.97;2.43;;;2.80;1.00;;;;;;5011546;28;20183;-77
2022/12/27 00:12:24;;;;;;;11.90;2.73;;;2.90;1.00;;;;;;5011671;28;20187;-78
2022/12/27 00:14:50;;;;;;;7.07;2.70;;;3.00;1.00;;;;;;5009126;28;20184;-79
2022/12/27 00:17:15;;;;;;;8.30;2.50;;;2.90;1.00;;;;;;5010266;28;20327;-80
2022/12/27 00:19:41;;;;;;;8.23;2.30;;;3.00;1.00;;;;;;5011224;28;20218;-78
2022/12/27 00:22:06;;;;;;;3.90;2.30;;;3.00;1.00;;;;;;5010104;28;20357;-77
2022/12/27 00:24:34;;;;;;;9.33;3.40;;;3.00;1.00;;;;;;5009579;28;20215;-81
2022/12/27 00:27:00;;;;;;;6.47;2.50;;;3.00;1.00;;;;;;5011389;28;20349;-80
2022/12/27 00:29:25;;;;;;;6.77;2.40;;;3.00;1.00;;;;;;5011070;28;20206;-81
2022/12/27 00:31:51;;;;;;;9.40;2.30;;;2.90;1.00;;;;;;5011561;28;20183;-79
2022/12/27 00:34:16;;;;;;;7.63;2.30;;;2.90;99.90;;;;;;5010095;28;20183;-79
2022/12/27 00:36:42;;;;;;;4.47;1.90;;;2.90;1.00;;;;;;5010378;28;20254;-80
2022/12/27 00:39:09;;;;;;;7.13;2.33;;;2.90;99.90;;;;;;5010745;28;20217;-77
2022/12/27 00:41:34;;;;;;;5.57;1.90;;;2.90;1.00;;;;;;5011085;28;20392;-81
2022/12/27 00:44:00;;;;;;;7.63;2.40;;;2.90;99.90;;;;;;5010590;28;20282;-79
2022/12/27 00:46:26;;;;;;;3.27;1.83;;;2.90;99.90;;;;;;5010450;28;20192;-80
2022/12/27 00:48:52;;;;;;;7.80;2.10;;;2.80;99.90;;;;;;5008198;28;20230;-80
2022/12/27 00:51:20;;;;;;;5.00;2.00;;;2.70;99.90;;;;;;5010466;28;20712;-80
2022/12/27 00:53:47;;;;;;;9.47;2.50;;;2.70;99.90;;;;;;5011763;28;20180;-80
2022/12/27 00:56:19;;;;;;;7.43;1.70;;;2.70;1.00;;;;;;5010895;28;20198;-80
2022/12/27 00:58:44;;;;;;;7.70;2.20;;;2.60;1.00;;;;;;5010453;28;20594;-80
2022/12/27 01:01:21;;;;;;;9.07;3.03;;;2.60;1.00;;;;;;5009068;28;20204;-78
2022/12/27 01:03:46;;;;;;;6.20;2.03;;;2.70;1.00;;;;;;5025326;28;20501;-81
2022/12/27 01:06:15;;;;;;;4.00;2.10;;;2.70;1.00;;;;;;5008290;28;20191;-77
2022/12/27 01:08:41;;;;;;;6.37;2.20;;;2.60;1.00;;;;;;5010197;28;20215;-75
2022/12/27 01:11:07;;;;;;;7.93;2.57;;;2.60;1.00;;;;;;5011124;28;20194;-80
2022/12/27 01:13:33;;;;;;;7.90;2.10;;;2.70;99.90;;;;;;5010673;28;20191;-80
2022/12/27 01:15:59;;;;;;;7.67;2.33;;;2.70;99.90;;;;;;5010494;28;20194;-79
2022/12/27 01:18:24;;;;;;;6.23;2.33;;;2.70;99.90;;;;;;5010583;28;20582;-80
2022/12/27 01:20:50;;;;;;;5.10;2.57;;;2.70;99.90;;;;;;5009194;28;20378;-81
2022/12/27 01:23:15;;;;;;;7.83;3.20;;;2.60;99.90;;;;;;5010773;28;20317;-79
2022/12/27 01:25:41;;;;;;;8.93;2.93;;;2.60;99.90;;;;;;5011073;28;20198;-78
2022/12/27 01:28:07;;;;;;;6.27;3.10;;;2.60;99.90;;;;;;5008986;28;20224;-75
2022/12/27 01:30:33;;;;;;;8.30;3.60;;;2.60;99.90;;;;;;5007097;28;20238;-76
2022/12/27 01:32:58;;;;;;;7.40;3.83;;;2.60;99.90;;;;;;5010041;28;20291;-79
2022/12/27 01:35:24;;;;;;;8.23;3.60;;;2.60;99.90;;;;;;5010092;28;20198;-79
2022/12/27 01:37:50;;;;;;;5.23;3.00;;;2.60;99.90;;;;;;5009332;28;20700;-82
2022/12/27 01:40:16;;;;;;;10.10;3.57;;;2.60;99.90;;;;;;5010533;28;20258;-79
2022/12/27 01:42:51;;;;;;;10.30;4.00;;;2.80;99.90;;;;;;5009831;28;20684;-79
2022/12/27 01:45:24;;;;;;;8.00;3.77;;;2.70;99.90;;;;;;5009994;28;20583;-80
2022/12/27 01:48:11;;;;;;;10.57;3.47;;;2.70;99.90;;;;;;5009327;28;20223;-77
2022/12/27 01:50:50;;;;;;;5.03;3.03;;;2.80;99.90;;;;;;5009885;28;20207;-78
2022/12/27 01:53:15;;;;;;;8.57;3.27;;;3.00;99.90;;;;;;5025657;28;20187;-76
2022/12/27 01:55:50;;;;;;;7.37;3.00;;;3.00;99.90;;;;;;5009723;28;20183;-78
2022/12/27 01:58:29;;;;;;;10.03;2.97;;;3.10;99.90;;;;;;5009416;28;20282;-81
2022/12/27 02:00:56;;;;;;;6.87;2.97;;;3.30;99.90;;;;;;5009869;28;20179;-81
2022/12/27 02:03:27;;;;;;;6.57;2.80;;;3.40;99.90;;;;;;5009817;28;20704;-81
2022/12/27 02:05:53;;;;;;;6.07;2.80;;;3.40;99.90;;;;;;5007854;28;20203;-81
2022/12/27 02:08:57;;;;;;;5.50;2.37;;;3.30;99.90;;;;;;5010201;28;20223;-79
2022/12/27 02:14:15;;;;;;;5.20;2.00;;;3.40;99.90;;;;;;5009842;28;20203;-81
2022/12/27 02:16:41;;;;;;;5.60;2.70;;;3.30;99.90;;;;;;5009586;28;20184;-81
2022/12/27 02:19:32;;;;;;;8.90;2.17;;;3.20;99.90;;;;;;5008034;28;20295;-76
2022/12/27 02:21:58;;;;;;;7.00;1.97;;;3.10;99.90;;;;;;5024386;28;20212;-81
2022/12/27 02:24:59;;;;;;;5.60;2.13;;;3.00;99.90;;;;;;5008436;28;20219;-80
2022/12/27 02:28:01;;;;;;;5.77;2.00;;;2.90;99.90;;;;;;5003471;28;20713;-77
2022/12/27 02:30:32;;;;;;;7.53;1.80;;;2.90;99.90;;;;;;5009177;28;20179;-79
2022/12/27 02:33:11;;;;;;;4.17;1.77;;;2.90;99.90;;;;;;5009450;28;20234;-78
2022/12/27 02:35:41;;;;;;;5.50;1.87;;;3.00;99.90;;;;;;5008954;28;20241;-81
2022/12/27 02:38:33;;;;;;;5.53;1.80;;;3.00;99.90;;;;;;5009467;28;20203;-79
2022/12/27 02:53:03;;;;;;;5.70;1.47;;;2.80;99.90;;;;;;5009445;28;20257;-79
2022/12/27 02:58:47;;;;;;;5.83;2.10;;;2.60;99.90;;;;;;5007853;28;20311;-81
2022/12/27 03:04:48;;;;;;;4.23;1.30;;;2.50;99.90;;;;;;5015212;22;20234;-79
2022/12/27 03:07:22;;;;;;;4.73;1.40;;;2.50;99.90;;;;;;4988376;28;20216;-77
2022/12/27 03:15:55;;;;;;;4.27;1.33;;;2.40;99.90;;;;;;4970411;28;20280;-77
2022/12/27 03:18:31;;;;;;;6.00;1.50;;;2.40;99.90;;;;;;4969634;28;20212;-78
2022/12/27 03:26:32;;;;;;;6.30;1.30;;;2.30;99.90;;;;;;4969017;28;20614;-76
2022/12/27 03:34:39;;;;;;;3.77;1.20;;;2.10;1.00;;;;;;4972179;28;20235;-76
2022/12/27 03:40:39;;;;;;;4.50;1.27;;;2.10;1.00;;;;;;4972074;28;20228;-78
2022/12/27 03:43:12;;;;;;;3.80;1.27;;;2.00;1.00;;;;;;4970825;28;20304;-79
2022/12/27 03:48:56;;;;;;;6.33;1.10;;;2.10;1.00;;;;;;4971502;28;20227;-79
2022/12/27 03:51:23;;;;;;;5.80;1.20;;;2.10;1.00;;;;;;4971838;28;20212;-78
2022/12/27 03:53:54;;;;;;;5.83;1.20;;;2.20;1.00;;;;;;4958858;28;20177;-79
2022/12/27 03:56:19;;;;;;;5.17;1.60;;;2.20;1.00;;;;;;4957331;28;21252;-76
2022/12/27 03:58:45;;;;;;;4.50;1.30;;;2.20;99.90;;;;;;4971449;28;20205;-79
2022/12/27 04:01:11;;;;;;;4.13;1.00;;;2.20;99.90;;;;;;4957931;28;20199;-76
2022/12/27 04:03:36;;;;;;;5.87;1.20;;;2.20;99.90;;;;;;4971911;28;20208;-78
2022/12/27 04:06:02;;;;;;;6.57;1.43;;;2.10;99.90;;;;;;4971209;28;20212;-80
2022/12/27 04:35:49;;;;;;;4.10;1.23;;;2.50;99.90;;;;;;4971170;28;20272;-79
2022/12/27 04:38:14;;;;;;;5.57;1.57;;;2.40;99.90;;;;;;4960780;28;20295;-79
2022/12/27 04:55:05;;;;;;;8.27;1.63;;;2.50;99.90;;;;;;4970839;28;20264;-76
2022/12/27 04:57:30;;;;;;;3.07;1.30;;;2.50;99.90;;;;;;4971445;28;20852;-79
2022/12/27 05:02:40;;;;;;;2.90;1.40;;;2.50;99.90;;;;;;4970668;28;20247;-80
2022/12/27 05:05:07;;;;;;;6.17;1.50;;;2.40;99.90;;;;;;4970430;28;20204;-75
2022/12/27 05:15:45;;;;;;;4.40;1.50;;;2.50;99.90;;;;;;4970711;28;20191;-77
2022/12/27 05:18:10;;;;;;;2.60;1.30;;;2.50;99.90;;;;;;4967053;28;20208;-78
2022/12/27 05:20:36;;;;;;;8.50;1.40;;;2.60;99.90;;;;;;4967819;28;20213;-80
2022/12/27 05:25:46;;;;;;;5.53;1.67;;;2.50;99.90;;;;;;4970063;28;20252;-79
2022/12/27 05:28:12;;;;;;;5.10;1.70;;;2.50;99.90;;;;;;4971044;28;20276;-80
2022/12/27 05:30:40;;;;;;;4.37;1.80;;;2.60;99.90;;;;;;4968163;28;20189;-79
2022/12/27 05:33:06;;;;;;;4.63;1.67;;;2.70;99.90;;;;;;4969245;28;20181;-78
2022/12/27 05:35:33;;;;;;;5.37;1.70;;;2.80;99.90;;;;;;4970268;28;20280;-79
2022/12/27 05:37:59;;;;;;;5.27;1.50;;;3.00;99.90;;;;;;4964789;28;20209;-79
2022/12/27 05:40:25;;;;;;;7.13;2.50;;;3.00;99.90;;;;;;4970049;28;20189;-79
2022/12/27 05:42:51;;;;;;;5.90;1.83;;;3.10;99.90;;;;;;4970107;28;20192;-79
2022/12/27 05:45:17;;;;;;;7.40;1.70;;;3.20;99.90;;;;;;4968679;28;20189;-80
2022/12/27 05:47:43;;;;;;;7.20;2.13;;;3.20;99.90;;;;;;4960622;28;20213;-76
2022/12/27 05:50:09;;;;;;;6.17;1.73;;;3.20;99.90;;;;;;4969053;28;20192;-76
2022/12/27 05:52:35;;;;;;;6.57;1.77;;;3.30;99.90;;;;;;4957813;28;20663;-76
2022/12/27 05:55:00;;;;;;;6.30;1.90;;;3.40;99.90;;;;;;4968742;28;20185;-77
2022/12/27 05:57:26;;;;;;;5.80;1.70;;;3.40;99.90;;;;;;4969069;28;20200;-76
2022/12/27 05:59:52;;;;;;;4.00;1.33;;;3.40;99.90;;;;;;4957924;28;20191;-80
2022/12/27 06:02:17;;;;;;;5.80;1.80;;;3.50;99.90;;;;;;4968758;28;20192;-79
2022/12/27 06:04:43;;;;;;;5.47;1.73;;;3.50;99.90;;;;;;4969316;28;20208;-79
2022/12/27 06:07:12;;;;;;;7.43;2.13;;;3.60;99.90;;;;;;4966892;28;20204;-78
2022/12/27 06:09:38;;;;;;;3.90;1.50;;;3.60;99.90;;;;;;4965712;28;20280;-79
2022/12/27 06:12:04;;;;;;;6.63;2.00;;;3.60;99.90;;;;;;4965757;28;20267;-77
2022/12/27 06:14:30;;;;;;;5.07;1.80;;;3.60;99.90;;;;;;4965458;28;20192;-76
2022/12/27 06:16:55;;;;;;;5.33;1.80;;;3.60;99.90;;;;;;4966169;28;20189;-76
2022/12/27 06:19:21;;;;;;;3.90;1.83;;;3.60;99.90;;;;;;4965684;28;20208;-77
2022/12/27 06:21:46;;;;;;;6.47;1.80;;;3.60;99.90;;;;;;4956699;28;20203;-77
2022/12/27 06:24:12;;;;;;;5.00;2.03;;;3.70;99.90;;;;;;4954715;28;20804;-78
2022/12/27 06:26:37;;;;;;;4.27;2.17;;;3.70;99.90;;;;;;4968499;28;20317;-77
2022/12/27 06:29:03;;;;;;;8.60;1.87;;;3.80;99.90;;;;;;4958227;28;20205;-79
2022/12/27 06:31:28;;;;;;;8.63;2.20;;;3.80;99.90;;;;;;4970257;28;20185;-78
2022/12/27 06:33:54;;;;;;;5.27;2.13;;;3.90;99.90;;;;;;4969884;28;20255;-79
2022/12/27 06:36:23;;;;;;;6.70;2.30;;;3.90;99.90;;;;;;4970027;28;20783;-79
2022/12/27 06:38:49;;;;;;;3.77;2.10;;;3.90;99.90;;;;;;4959776;28;20236;-80
2022/12/27 06:41:16;;;;;;;6.40;2.47;;;4.00;99.90;;;;;;4969128;28;20199;-78
2022/12/27 06:43:42;;;;;;;5.90;2.10;;;4.10;99.90;;;;;;4969142;28;20188;-79
2022/12/27 06:46:16;;;;;;;6.10;2.20;;;4.20;99.90;;;;;;4957588;28;20233;-79
2022/12/27 06:48:43;;;;;;;9.23;2.50;;;4.20;99.90;;;;;;4968606;28;20209;-80
2022/12/27 06:51:10;;;;;;;5.17;2.73;;;4.20;99.90;;;;;;4968574;28;20196;-77
2022/12/27 06:53:36;;;;;;;8.10;2.50;;;4.20;99.90;;;;;;4968775;28;20185;-78
2022/12/27 06:56:08;;;;;;;4.83;2.10;;;4.30;99.90;;;;;;4967937;28;20191;-78
2022/12/27 06:58:33;;;;;;;6.00;2.50;;;4.40;99.90;;;;;;4968648;28;20288;-76
2022/12/27 07:01:10;;;;;;;4.67;2.50;;;4.40;99.90;;;;;;4967201;28;20282;-76
2022/12/27 07:03:36;;;;;;;6.23;2.80;;;4.40;99.90;;;;;;4968302;28;20693;-79
2022/12/27 07:06:03;;;;;;;6.17;2.63;;;4.40;99.90;;;;;;4967720;28;20204;-76
2022/12/27 07:08:29;;;;;;;3.73;2.40;;;4.40;99.90;;;;;;4968298;28;20220;-78
2022/12/27 07:11:00;;;;;;;4.70;2.47;;;4.50;99.90;;;;;;4967445;28;20174;-78
2022/12/27 07:13:25;;;;;;;5.23;2.63;;;4.60;99.90;;;;;;4967772;28;20216;-78
2022/12/27 07:15:51;;;;;;;6.13;2.67;;;4.70;99.90;;;;;;4967394;28;20224;-76
2022/12/27 07:18:16;;;;;;;5.73;2.60;;;4.60;99.90;;;;;;4957155;28;20251;-79
2022/12/27 07:20:42;;;;;;;5.50;2.70;;;4.60;99.90;;;;;;4954325;28;20185;-77
2022/12/27 07:23:07;;;;;;;8.57;3.10;;;4.70;99.90;;;;;;4957135;28;20232;-78
2022/12/27 07:25:33;;;;;;;3.63;2.83;;;4.60;99.90;;;;;;4966594;28;20185;-76
2022/12/27 07:27:58;;;;;;;5.30;2.57;;;4.60;99.90;;;;;;4967280;28;20333;-78
2022/12/27 07:30:24;;;;;;;4.27;2.90;;;4.60;99.90;;;;;;4953385;28;20217;-77
2022/12/27 07:32:50;;;;;;;6.83;2.90;;;4.60;99.90;;;;;;4968164;28;20232;-77
2022/12/27 07:35:16;;;;;;;5.13;2.87;;;4.70;99.90;;;;;;4966439;28;20185;-78
2022/12/27 07:37:41;;;;;;;5.63;2.73;;;4.60;99.90;;;;;;4966744;28;20191;-78
2022/12/27 07:40:07;;;;;;;5.97;2.97;;;4.60;99.90;;;;;;4955808;28;20185;-80
2022/12/27 07:42:33;;;;;;;5.80;2.47;;;4.70;99.90;;;;;;4966036;28;20195;-79
2022/12/27 07:44:58;;;;;;;5.67;3.23;;;4.70;99.90;;;;;;4954937;28;20275;-80
2022/12/27 07:47:24;;;;;;;5.37;3.10;;;4.70;99.90;;;;;;4968959;28;20216;-78
2022/12/27 07:49:49;;;;;;;8.77;3.27;;;4.70;99.90;;;;;;4971030;28;20185;-77
2022/12/27 07:52:15;;;;;;;7.37;3.20;;;4.60;99.90;;;;;;4965878;28;20185;-77
2022/12/27 07:54:41;;;;;;;7.27;3.40;;;4.60;99.90;;;;;;4970715;28;20185;-78
2022/12/27 07:57:06;;;;;;;5.33;3.57;;;4.70;99.90;;;;;;4966470;28;20184;-83
2022/12/27 07:59:32;;;;;;;8.63;3.50;;;4.70;99.90;;;;;;4967592;28;20215;-79
2022/12/27 08:02:03;;;;;;;5.27;3.13;;;4.70;99.90;;;;;;4969435;28;21034;-78
2022/12/27 08:04:29;;;;;;;4.20;3.33;;;4.70;99.90;;;;;;4968986;28;20213;-78
2022/12/27 08:07:04;;;;;;;7.77;4.20;;;4.70;99.90;;;;;;4968640;28;20208;-79
2022/12/27 08:09:32;;;;;;;9.07;4.13;;;4.70;99.90;;;;;;4958816;28;20254;-78
2022/12/27 08:11:58;;;;;;;7.73;4.10;;;4.70;99.90;;;;;;4957003;28;20188;-77
2022/12/27 08:14:24;;;;;;;6.03;4.20;;;4.80;99.90;;;;;;4969292;28;20618;-79
2022/12/27 08:16:49;;;;;;;8.00;4.20;;;4.80;99.90;;;;;;4972358;28;20200;-75
2022/12/27 08:19:15;;;;;;;6.60;4.37;;;4.80;99.90;;;;;;4968162;28;20259;-77
2022/12/27 08:21:40;;;;;;;5.37;3.70;;;4.80;99.90;;;;;;4967687;28;20236;-77
2022/12/27 08:24:06;;;;;;;8.43;4.00;;;4.80;99.90;;;;;;4966102;28;20284;-78
2022/12/27 08:26:31;;;;;;;7.73;4.00;;;4.80;99.90;;;;;;4966939;28;20181;-76
2022/12/27 08:28:57;;;;;;;9.90;3.90;;;4.80;99.90;;;;;;4953587;28;20740;-77
2022/12/27 08:31:23;;;;;;;5.20;3.87;;;4.80;99.90;;;;;;4952161;28;20678;-78
2022/12/27 08:33:49;;;;;;;6.47;4.33;;;4.80;99.90;;;;;;4965323;28;20777;-77
2022/12/27 08:36:15;;;;;;;5.23;3.83;;;4.90;99.90;;;;;;4963768;28;20687;-78
2022/12/27 08:38:41;;;;;;;7.23;4.17;;;4.80;99.90;;;;;;4964633;28;20207;-77
2022/12/27 08:41:06;;;;;;;9.50;4.27;;;4.90;99.90;;;;;;4958251;28;20196;-76
2022/12/27 08:43:32;;;;;;;11.67;4.13;;;4.90;99.90;;;;;;4965525;28;20185;-75
2022/12/27 08:46:03;;;;;;;6.27;3.93;;;4.90;99.90;;;;;;4955560;28;20337;-78
2022/12/27 08:48:32;;;;;;;8.03;4.20;;;5.60;99.90;;;;;;4964556;28;20220;-78
2022/12/27 08:51:06;;;;;;;5.83;4.23;;;4.90;99.90;;;;;;4964735;28;20215;-79
2022/12/27 08:53:31;;;;;;;8.33;4.67;;;4.90;99.90;;;;;;4966648;28;20272;-79
2022/12/27 08:55:57;;;;;;;5.87;3.73;;;4.90;99.90;;;;;;4963628;28;20640;-74
2022/12/27 08:58:23;;;;;;;6.67;3.90;;;4.90;99.90;;;;;;4966152;28;20220;-78
2022/12/27 09:00:49;;;;;;;8.37;4.50;;;4.90;99.90;;;;;;4959701;28;20196;-79
2022/12/27 09:03:18;;;;;;;7.43;4.03;;;4.90;99.90;;;;;;4967219;28;20280;-78
2022/12/27 09:05:43;;;;;;;8.77;4.60;;;4.90;99.90;;;;;;4967345;28;20188;-77
2022/12/27 09:08:10;;;;;;;8.47;4.50;;;4.90;99.90;;;;;;4962955;28;20574;-76
2022/12/27 09:10:35;;;;;;;9.10;4.03;;;5.00;99.90;;;;;;4956923;28;20239;-77
2022/12/27 09:13:01;;;;;;;7.57;4.37;;;5.00;99.40;;;;;;4953483;28;20181;-76
2022/12/27 09:15:26;;;;;;;8.03;4.50;;;5.00;98.00;;;;;;4963482;28;20630;-79
2022/12/27 09:17:52;;;;;;;7.00;4.07;;;5.00;94.70;;;;;;4954146;28;20211;-78
2022/12/27 09:20:18;;;;;;;9.40;4.30;;;5.10;88.70;;;;;;4951659;28;20257;-79
2022/12/27 09:22:44;;;;;;;6.57;3.60;;;5.10;76.00;;;;;;4967087;28;20177;-77
2022/12/27 09:25:10;;;;;;;6.37;3.47;;;5.10;83.70;;;;;;4955707;28;20247;-77
2022/12/27 09:27:36;;;;;;;7.17;3.97;;;5.10;65.80;;;;;;4964504;28;20222;-79
2022/12/27 09:30:04;;;;;;;8.97;3.70;;;5.20;68.10;;;;;;4954550;28;20189;-79
2022/12/27 09:32:30;;;;;;;7.63;4.00;;;5.20;64.30;;;;;;4967191;28;20251;-76
2022/12/27 09:34:55;;;;;;;9.50;4.70;;;5.60;66.10;;;;;;4967907;28;20204;-78
2022/12/27 09:37:21;;;;;;;9.27;4.67;;;5.20;87.60;;;;;;4966701;28;20196;-78
2022/12/27 09:39:46;;;;;;;12.27;5.03;;;5.10;71.90;;;;;;4959269;28;20205;-77
2022/12/27 09:42:39;;;;;;;9.07;4.60;;;5.10;63.00;;;;;;4968523;28;20192;-77
2022/12/27 09:45:24;;;;;;;7.30;4.40;;;5.00;70.10;;;;;;4966110;28;20185;-76
2022/12/27 09:48:02;;;;;;;6.47;4.00;;;5.00;81.00;;;;;;4965983;28;20805;-77
2022/12/27 09:50:34;;;;;;;7.47;3.40;;;5.10;62.60;;;;;;4966630;28;20180;-76
2022/12/27 09:53:38;;;;;;;8.70;4.10;;;5.10;67.00;;;;;;4956148;28;20196;-77
2022/12/27 09:56:05;;;;;;;8.07;3.80;;;5.20;59.20;;;;;;4963096;28;20195;-76
2022/12/27 09:58:48;;;;;;;5.80;4.17;;;5.30;55.80;;;;;;4965896;28;20713;-77
2022/12/27 10:01:33;;;;;;;8.60;3.90;;;5.30;58.20;;;;;;4967402;28;20200;-77
2022/12/27 10:04:00;;;;;;;6.23;3.40;;;5.30;38.70;;;;;;4964627;28;20212;-77
2022/12/27 10:06:40;;;;;;;5.53;3.30;;;5.30;38.20;;;;;;4954191;28;20540;-77
2022/12/27 10:09:26;;;;;;;6.70;3.33;;;5.30;31.60;;;;;;4964776;28;20666;-79
2022/12/27 10:12:31;;;;;;;6.13;3.27;;;5.30;35.60;;;;;;4967437;28;20651;-77
2022/12/27 10:15:03;;;;;;;6.83;3.47;;;5.40;46.60;;;;;;4967144;28;20268;-78
2022/12/27 10:17:38;;;;;;;8.57;3.83;;;5.30;39.20;;;;;;4966895;28;20729;-79
2022/12/27 10:20:29;;;;;;;5.93;3.03;;;5.40;37.30;;;;;;4953846;28;20203;-76
2022/12/27 10:23:03;;;;;;;7.43;3.23;;;5.50;35.10;;;;;;4963783;28;20196;-77
2022/12/27 10:25:29;;;;;;;6.73;2.90;;;5.50;32.90;;;;;;4957116;28;20193;-78
2022/12/27 10:28:00;;;;;;;4.10;3.00;;;5.50;26.70;;;;;;4965822;28;20829;-77
2022/12/27 10:30:29;;;;;;;5.53;2.90;;;5.50;33.80;;;;;;4966440;28;20288;-79
2022/12/27 10:32:55;;;;;;;8.07;3.30;;;5.60;27.60;;;;;;4963734;28;20199;-77
2022/12/27 10:35:23;;;;;;;9.93;3.03;;;5.60;27.70;;;;;;4965092;28;20193;-78
2022/12/27 10:37:49;;;;;;;8.20;2.90;;;5.70;24.00;;;;;;4952512;28;20209;-75
2022/12/27 10:40:18;;;;;;;5.67;2.80;;;5.70;27.80;;;;;;4965110;28;20734;-79
2022/12/27 10:42:53;;;;;;;7.17;3.10;;;5.80;19.20;;;;;;4959391;28;20212;-77
2022/12/27 10:45:35;;;;;;;6.70;2.80;;;5.70;12.70;;;;;;4966808;28;20287;-76
2022/12/27 10:48:20;;;;;;;7.17;4.47;;;5.70;13.90;;;;;;4966251;28;20217;-77
2022/12/27 10:50:51;;;;;;;3.97;2.80;;;5.70;18.20;;;;;;4967796;28;20274;-78
2022/12/27 10:53:45;;;;;;;5.57;3.47;;;5.70;9.30;;;;;;4965441;28;20192;-78
2022/12/27 10:56:19;;;;;;;5.07;2.53;;;5.70;4.80;;;;;;4939442;28;20188;-76
2022/12/27 10:58:47;;;;;;;7.37;2.90;;;5.70;6.80;;;;;;4968395;28;20204;-79
2022/12/27 11:01:25;;;;;;;4.93;2.17;;;5.80;8.60;;;;;;4966843;28;20255;-77
2022/12/27 11:03:51;;;;;;;4.33;2.30;;;5.80;1.00;;;;;;4964930;28;21234;-75
2022/12/27 11:06:21;;;;;;;6.27;2.77;;;5.70;17.30;;;;;;4965753;28;20196;-78
2022/12/27 11:08:47;;;;;;;7.07;2.67;;;5.70;4.30;;;;;;4964689;28;20213;-77
2022/12/27 11:11:22;;;;;;;6.40;2.40;;;5.80;2.10;;;;;;4965230;28;20192;-76
2022/12/27 11:13:48;;;;;;;8.60;2.73;;;5.80;7.20;;;;;;4965169;28;20199;-77
2022/12/27 11:16:31;;;;;;;5.50;2.50;;;5.80;23.30;;;;;;4965319;28;20604;-77
2022/12/27 11:18:58;;;;;;;7.00;2.87;;;5.80;5.40;;;;;;4965763;28;20201;-78
2022/12/27 11:21:26;;;;;;;8.77;2.80;;;5.80;13.40;;;;;;4968158;28;20185;-77
2022/12/27 11:23:56;;;;;;;5.43;2.50;;;5.90;14.90;;;;;;4963685;28;20187;-77
2022/12/27 11:26:29;;;;;;;5.97;2.53;;;5.90;3.60;;;;;;4958235;28;20192;-76
2022/12/27 11:28:59;;;;;;;6.03;2.40;;;5.90;2.80;;;;;;4969461;28;20216;-76
2022/12/27 11:31:43;;;;;;;6.83;2.03;;;5.90;1.00;;;;;;4960326;28;20185;-79
2022/12/27 11:34:18;;;;;;;6.30;2.17;;;5.90;1.00;;;;;;4969227;28;20201;-77
2022/12/27 11:36:50;;;;;;;4.63;2.10;;;5.90;1.00;;;;;;4968604;28;20184;-76
2022/12/27 11:39:49;;;;;;;4.00;2.10;;;6.10;1.20;;;;;;4973649;28;20205;-78
2022/12/27 11:42:39;;;;;;;5.60;2.33;;;6.20;1.00;;;;;;4955234;28;20185;-77
2022/12/27 11:45:21;;;;;;;5.03;2.57;;;6.30;1.00;;;;;;4967549;28;20271;-78
2022/12/27 11:47:52;;;;;;;5.00;2.40;;;6.40;1.00;;;;;;4967424;28;20862;-75
2022/12/27 11:50:27;;;;;;;3.70;2.50;;;6.50;1.00;;;;;;4960502;28;20200;-80
2022/12/27 11:53:25;;;;;;;5.63;2.50;;;6.40;1.00;;;;;;4972021;28;20176;-80
2022/12/27 11:56:14;;;;;;;5.50;2.40;;;6.40;1.00;;;;;;4973069;28;20212;-77
2022/12/27 11:58:42;;;;;;;5.83;2.30;;;6.30;1.00;;;;;;4960166;28;20200;-78
2022/12/27 12:01:28;;;;;;;6.23;2.93;;;6.30;1.00;;;;;;4973005;28;20607;-79
2022/12/27 12:04:34;;;;;;;6.50;2.27;;;6.30;1.00;;;;;;4961104;28;20236;-78
2022/12/27 12:07:21;;;;;;;5.47;2.73;;;6.20;1.00;;;;;;4970549;28;20196;-78
2022/12/27 12:10:11;;;;;;;5.63;2.90;;;6.00;1.00;;;;;;4969713;28;20263;-80
2022/12/27 12:13:08;;;;;;;5.90;2.77;;;6.00;1.00;;;;;;4971276;28;20619;-78
2022/12/27 12:15:58;;;;;;;6.47;3.30;;;6.00;1.00;;;;;;4970992;28;20251;-81
2022/12/27 12:18:51;;;;;;;5.80;3.20;;;5.90;1.00;;;;;;4969500;28;20209;-81
2022/12/27 12:21:24;;;;;;;6.53;3.30;;;6.00;1.00;;;;;;4970872;28;20189;-81
2022/12/27 12:24:16;;;;;;;17.23;10.20;;;6.00;2.80;;;;;;4959606;28;20241;-79
2022/12/27 12:27:02;;;;;;;8.67;3.57;;;5.70;22.50;;;;;;4956159;28;20188;-80
2022/12/27 12:30:09;;;;;;;7.23;3.90;;;5.60;42.20;;;;;;4970218;28;20263;-80
2022/12/27 12:32:55;;;;;;;9.10;3.77;;;5.50;63.30;;;;;;4960362;28;20184;-80
2022/12/27 12:36:05;;;;;;;4.80;3.30;;;5.60;45.80;;;;;;4944235;28;20575;-80
2022/12/27 12:38:51;;;;;;;6.43;3.87;;;5.60;20.60;;;;;;4916118;29;20365;-79
2022/12/27 12:41:29;;;;;;;7.67;3.77;;;5.80;9.10;;;;;;4963753;28;20193;-79
2022/12/27 12:44:12;;;;;;;6.30;3.70;;;5.90;1.00;;;;;;4954598;28;20192;-80
2022/12/27 12:46:45;;;;;;;6.07;3.77;;;5.90;1.00;;;;;;4967639;28;20185;-82
2022/12/27 12:49:53;;;;;;;6.93;3.33;;;6.00;1.00;;;;;;4967285;28;20315;-78
2022/12/27 12:52:44;;;;;;;4.27;2.90;;;6.00;1.00;;;;;;4954757;28;20196;-81
2022/12/27 12:55:55;;;;;;;8.20;3.50;;;5.90;1.00;;;;;;4965352;28;20671;-79
2022/12/27 12:58:39;;;;;;;7.70;3.30;;;5.80;1.00;;;;;;4906844;29;20233;-78
2022/12/27 13:01:23;;;;;;;6.37;3.07;;;5.80;1.00;;;;;;4906810;29;20257;-78
2022/12/27 13:04:09;;;;;;;7.03;3.37;;;5.80;1.00;;;;;;4951193;28;20216;-79
2022/12/27 13:07:02;;;;;;;6.70;3.57;;;5.90;1.00;;;;;;4969228;28;20196;-82
2022/12/27 13:10:02;;;;;;;7.13;3.37;;;6.00;1.00;;;;;;4960939;28;20215;-80
2022/12/27 13:12:44;;;;;;;7.10;3.50;;;6.00;1.00;;;;;;4959609;28;20675;-77
2022/12/27 13:15:41;;;;;;;8.53;3.90;;;6.00;1.00;;;;;;4961713;28;20193;-81
2022/12/27 13:18:12;;;;;;;6.47;4.10;;;6.00;1.00;;;;;;4971757;28;20219;-84
2022/12/27 13:20:54;;;;;;;6.17;3.70;;;6.10;1.00;;;;;;4957610;28;20374;-80
2022/12/27 13:23:38;;;;;;;5.37;3.50;;;6.20;1.00;;;;;;4968117;28;20196;-83
2022/12/27 13:26:16;;;;;;;7.13;3.80;;;6.10;1.00;;;;;;4968477;28;20228;-79
2022/12/27 13:28:59;;;;;;;7.87;3.73;;;6.10;1.00;;;;;;4959228;28;20215;-79
2022/12/27 13:31:43;;;;;;;6.17;3.70;;;6.00;1.00;;;;;;4966378;28;20189;-79
2022/12/27 13:34:25;;;;;;;6.47;3.43;;;5.90;1.00;;;;;;4960818;28;20203;-78
2022/12/27 13:37:09;;;;;;;9.80;4.07;;;5.80;1.00;;;;;;4966224;28;20292;-78
2022/12/27 13:39:51;;;;;;;5.10;4.23;;;5.80;1.00;;;;;;4966904;28;20805;-79
2022/12/27 13:42:39;;;;;;;7.43;4.53;;;5.70;1.00;;;;;;4966127;28;20196;-79
2022/12/27 13:45:26;;;;;;;6.33;3.90;;;5.80;1.00;;;;;;4965102;28;20196;-79
2022/12/27 13:48:30;;;;;;;5.50;4.03;;;5.90;1.00;;;;;;4964688;28;20300;-78
2022/12/27 13:51:21;;;;;;;7.33;4.20;;;5.70;1.00;;;;;;4964130;28;20180;-79
2022/12/27 13:53:50;;;;;;;7.47;4.03;;;5.70;1.00;;;;;;4965731;28;20184;-79
2022/12/27 13:56:40;;;;;;;6.80;4.47;;;5.50;1.00;;;;;;4951088;28;20216;-79
2022/12/27 13:59:05;;;;;;;7.53;4.70;;;5.50;1.00;;;;;;4963089;28;20228;-79
2022/12/27 14:01:56;;;;;;;6.87;4.53;;;5.40;5.40;;;;;;4954951;28;20236;-78
2022/12/27 14:04:40;;;;;;;6.37;4.33;;;5.30;8.00;;;;;;4952510;28;20579;-78
2022/12/27 14:07:15;;;;;;;7.53;5.00;;;5.20;6.00;;;;;;4957189;28;20185;-78
2022/12/27 14:09:51;;;;;;;7.77;4.47;;;5.20;12.60;;;;;;4962701;28;20222;-78
2022/12/27 14:13:00;;;;;;;8.57;4.47;;;5.20;3.00;;;;;;4954627;28;20173;-79
2022/12/27 14:15:37;;;;;;;7.23;5.20;;;5.30;1.00;;;;;;4963585;28;20204;-77
2022/12/27 14:18:12;;;;;;;8.53;4.80;;;5.30;2.60;;;;;;4964705;28;20212;-79
2022/12/27 14:20:37;;;;;;;7.60;4.97;;;5.30;3.30;;;;;;4964680;28;20184;-78
2022/12/27 14:23:21;;;;;;;8.50;5.00;;;5.30;8.20;;;;;;4953556;28;20181;-80
2022/12/27 14:26:24;;;;;;;8.50;4.30;;;5.10;3.90;;;;;;4962757;28;20291;-76
2022/12/27 14:29:20;;;;;;;7.43;4.67;;;5.10;1.60;;;;;;4961245;28;20216;-78
2022/12/27 14:32:03;;;;;;;5.23;4.63;;;5.00;3.50;;;;;;4962757;28;20187;-79
2022/12/27 14:35:00;;;;;;;5.63;4.50;;;4.90;5.20;;;;;;4960412;28;20762;-79
2022/12/27 14:37:44;;;;;;;5.93;4.63;;;5.00;1.00;;;;;;4952858;28;20185;-80
2022/12/27 14:40:33;;;;;;;10.93;4.43;;;4.80;3.50;;;;;;4954074;28;20331;-77
2022/12/27 14:43:27;;;;;;;7.20;4.67;;;4.80;1.50;;;;;;4961598;28;20564;-77
2022/12/27 14:46:22;;;;;;;7.37;4.83;;;4.70;6.10;;;;;;4966301;28;20189;-80
2022/12/27 14:49:26;;;;;;;5.73;4.67;;;4.60;13.10;;;;;;4966759;28;20215;-79
2022/12/27 14:52:16;;;;;;;7.40;4.70;;;4.40;20.80;;;;;;4932965;28;20196;-77
2022/12/27 14:55:03;;;;;;;5.53;4.90;;;4.40;19.20;;;;;;4967453;28;20276;-80
2022/12/27 14:57:56;;;;;;;6.77;4.43;;;4.20;38.20;;;;;;4969202;28;20192;-78
2022/12/27 15:00:27;;;;;;;7.07;5.03;;;4.20;44.90;;;;;;4969369;28;20300;-78
2022/12/27 15:03:11;;;;;;;6.87;5.40;;;4.10;55.60;;;;;;4971245;28;20189;-78
2022/12/27 15:05:48;;;;;;;8.77;5.90;;;4.00;61.50;;;;;;4966712;28;20196;-76
2022/12/27 15:08:35;;;;;;;6.90;6.00;;;3.90;82.20;;;;;;4969976;28;20221;-78
2022/12/27 15:11:30;;;;;;;8.97;5.90;;;3.80;95.40;;;;;;4969077;28;20190;-78
2022/12/27 15:14:16;;;;;;;9.20;6.30;;;3.70;99.90;;;;;;4959251;28;20177;-77